sensor_id;sensor_type;location;lat;lon;timestamp;pressure;altitude;pressure_sealevel;temperature;humidity
56681;BME280;42558;52.388;13.390;2023-04-22T00:02:08;101065.36;;;8.50;72.76
56681;BME280;42558;52.388;13.390;2023-04-22T00:04:36;101062.49;;;8.54;72.78
56681;BME280;42558;52.388;13.390;2023-04-22T00:07:05;101059.13;;;8.52;72.62
56681;BME280;42558;52.388;13.390;2023-04-22T00:09:34;101051.81;;;8.54;72.34
56681;BME280;42558;52.388;13.390;2023-04-22T00:12:02;101047.86;;;8.50;72.70
56681;BME280;42558;52.388;13.390;2023-04-22T00:14:30;101045.85;;;8.48;72.83
56681;BME280;42558;52.388;13.390;2023-04-22T00:16:58;101042.46;;;8.45;72.61
56681;BME280;42558;52.388;13.390;2023-04-22T00:19:28;101037.45;;;8.41;72.65
56681;BME280;42558;52.388;13.390;2023-04-22T00:21:55;101032.86;;;8.34;73.34
56681;BME280;42558;52.388;13.390;2023-04-22T00:24:24;101030.92;;;8.28;73.60
56681;BME280;42558;52.388;13.390;2023-04-22T00:26:52;101028.63;;;8.27;73.45
56681;BME280;42558;52.388;13.390;2023-04-22T00:29:21;101023.83;;;8.24;73.57
56681;BME280;42558;52.388;13.390;2023-04-22T00:31:49;101022.60;;;8.24;73.57
56681;BME280;42558;52.388;13.390;2023-04-22T00:34:17;101021.59;;;8.26;74.28
56681;BME280;42558;52.388;13.390;2023-04-22T00:36:46;101018.02;;;8.41;73.21
56681;BME280;42558;52.388;13.390;2023-04-22T00:39:14;101020.88;;;8.37;73.01
56681;BME280;42558;52.388;13.390;2023-04-22T00:41:43;101018.73;;;8.30;73.03
56681;BME280;42558;52.388;13.390;2023-04-22T00:44:11;101018.61;;;8.32;73.21
56681;BME280;42558;52.388;13.390;2023-04-22T00:46:40;101018.20;;;8.30;73.45
56681;BME280;42558;52.388;13.390;2023-04-22T00:49:08;101013.69;;;8.31;73.11
56681;BME280;42558;52.388;13.390;2023-04-22T00:51:36;101007.40;;;8.26;73.31
56681;BME280;42558;52.388;13.390;2023-04-22T00:54:05;101006.41;;;8.21;73.63
56681;BME280;42558;52.388;13.390;2023-04-22T00:56:35;101006.57;;;8.15;73.62
56681;BME280;42558;52.388;13.390;2023-04-22T00:59:08;101009.31;;;8.12;73.69
56681;BME280;42558;52.388;13.390;2023-04-22T01:01:37;101010.92;;;8.20;73.95
56681;BME280;42558;52.388;13.390;2023-04-22T01:04:07;101009.55;;;8.21;73.46
56681;BME280;42558;52.388;13.390;2023-04-22T01:06:43;101013.03;;;8.14;73.76
56681;BME280;42558;52.388;13.390;2023-04-22T01:09:12;101010.95;;;8.09;73.96
56681;BME280;42558;52.388;13.390;2023-04-22T01:11:42;101007.05;;;8.06;73.76
56681;BME280;42558;52.388;13.390;2023-04-22T01:14:12;101007.58;;;8.07;74.14
56681;BME280;42558;52.388;13.390;2023-04-22T01:16:44;101005.47;;;8.00;74.46
56681;BME280;42558;52.388;13.390;2023-04-22T01:19:13;101010.50;;;8.05;74.28
56681;BME280;42558;52.388;13.390;2023-04-22T01:21:45;101008.37;;;7.98;74.28
56681;BME280;42558;52.388;13.390;2023-04-22T01:24:15;101007.46;;;7.83;75.15
56681;BME280;42558;52.388;13.390;2023-04-22T01:26:47;101004.84;;;7.90;75.68
56681;BME280;42558;52.388;13.390;2023-04-22T01:29:16;101002.63;;;7.86;75.28
56681;BME280;42558;52.388;13.390;2023-04-22T01:31:46;101003.64;;;7.84;75.25
56681;BME280;42558;52.388;13.390;2023-04-22T01:34:17;101000.55;;;7.80;75.17
56681;BME280;42558;52.388;13.390;2023-04-22T01:36:47;101001.55;;;7.73;75.33
56681;BME280;42558;52.388;13.390;2023-04-22T01:39:17;100998.98;;;7.68;75.86
56681;BME280;42558;52.388;13.390;2023-04-22T01:41:47;100998.02;;;7.65;75.95
56681;BME280;42558;52.388;13.390;2023-04-22T01:44:17;100999.33;;;7.62;76.03
56681;BME280;42558;52.388;13.390;2023-04-22T01:46:47;100992.27;;;7.66;76.02
56681;BME280;42558;52.388;13.390;2023-04-22T01:49:17;100991.96;;;7.56;75.88
56681;BME280;42558;52.388;13.390;2023-04-22T01:51:47;100987.20;;;7.49;76.50
56681;BME280;42558;52.388;13.390;2023-04-22T01:54:17;100982.67;;;7.50;77.03
56681;BME280;42558;52.388;13.390;2023-04-22T01:56:53;100983.19;;;7.49;77.35
56681;BME280;42558;52.388;13.390;2023-04-22T01:59:23;100973.39;;;7.55;77.05
56681;BME280;42558;52.388;13.390;2023-04-22T02:01:52;100970.80;;;7.62;76.60
56681;BME280;42558;52.388;13.390;2023-04-22T02:04:22;100972.71;;;7.68;76.33
56681;BME280;42558;52.388;13.390;2023-04-22T02:06:52;100969.00;;;7.60;76.43
56681;BME280;42558;52.388;13.390;2023-04-22T02:09:21;100968.16;;;7.74;76.01
56681;BME280;42558;52.388;13.390;2023-04-22T02:11:49;100965.33;;;7.85;75.29
56681;BME280;42558;52.388;13.390;2023-04-22T02:14:17;100961.44;;;7.84;75.09
56681;BME280;42558;52.388;13.390;2023-04-22T02:16:46;100961.70;;;7.81;75.08
56681;BME280;42558;52.388;13.390;2023-04-22T02:19:14;100959.89;;;7.78;74.78
56681;BME280;42558;52.388;13.390;2023-04-22T02:21:43;100959.77;;;7.68;75.38
56681;BME280;42558;52.388;13.390;2023-04-22T02:24:11;100956.69;;;7.59;75.69
56681;BME280;42558;52.388;13.390;2023-04-22T02:26:40;100955.67;;;7.54;76.02
56681;BME280;42558;52.388;13.390;2023-04-22T02:29:08;100953.00;;;7.58;76.04
56681;BME280;42558;52.388;13.390;2023-04-22T02:31:36;100947.70;;;7.62;75.98
56681;BME280;42558;52.388;13.390;2023-04-22T02:34:05;100945.21;;;7.55;75.79
56681;BME280;42558;52.388;13.390;2023-04-22T02:36:33;100947.13;;;7.43;76.06
56681;BME280;42558;52.388;13.390;2023-04-22T02:39:02;100943.50;;;7.38;76.73
56681;BME280;42558;52.388;13.390;2023-04-22T02:41:33;100943.10;;;7.43;76.57
56681;BME280;42558;52.388;13.390;2023-04-22T02:44:01;100942.17;;;7.34;76.75
56681;BME280;42558;52.388;13.390;2023-04-22T02:46:30;100941.95;;;7.27;76.92
56681;BME280;42558;52.388;13.390;2023-04-22T02:48:58;100939.58;;;7.24;77.34
56681;BME280;42558;52.388;13.390;2023-04-22T02:51:27;100942.98;;;7.21;77.37
56681;BME280;42558;52.388;13.390;2023-04-22T02:53:55;100943.75;;;7.17;77.40
56681;BME280;42558;52.388;13.390;2023-04-22T02:56:24;100940.25;;;7.17;77.78
56681;BME280;42558;52.388;13.390;2023-04-22T02:58:52;100943.59;;;7.23;77.49
56681;BME280;42558;52.388;13.390;2023-04-22T03:01:20;100939.42;;;7.24;77.44
56681;BME280;42558;52.388;13.390;2023-04-22T03:03:49;100942.04;;;7.18;77.76
56681;BME280;42558;52.388;13.390;2023-04-22T03:06:17;100944.13;;;7.18;77.62
56681;BME280;42558;52.388;13.390;2023-04-22T03:08:46;100939.82;;;7.14;77.80
56681;BME280;42558;52.388;13.390;2023-04-22T03:11:14;100943.81;;;7.07;77.51
56681;BME280;42558;52.388;13.390;2023-04-22T03:13:43;100946.29;;;6.97;77.78
56681;BME280;42558;52.388;13.390;2023-04-22T03:16:11;100943.48;;;6.92;78.11
56681;BME280;42558;52.388;13.390;2023-04-22T03:18:39;100945.89;;;6.90;79.00
56681;BME280;42558;52.388;13.390;2023-04-22T03:21:08;100944.94;;;6.88;79.00
56681;BME280;42558;52.388;13.390;2023-04-22T03:23:36;100943.90;;;6.88;79.09
56681;BME280;42558;52.388;13.390;2023-04-22T03:26:05;100938.45;;;6.88;78.91
56681;BME280;42558;52.388;13.390;2023-04-22T03:28:33;100939.11;;;6.86;79.26
56681;BME280;42558;52.388;13.390;2023-04-22T03:31:02;100941.94;;;6.87;79.31
56681;BME280;42558;52.388;13.390;2023-04-22T03:33:30;100944.23;;;6.88;79.17
56681;BME280;42558;52.388;13.390;2023-04-22T03:35:58;100942.19;;;6.89;79.27
56681;BME280;42558;52.388;13.390;2023-04-22T03:38:27;100941.67;;;6.83;79.36
56681;BME280;42558;52.388;13.390;2023-04-22T03:40:55;100944.77;;;6.77;79.44
56681;BME280;42558;52.388;13.390;2023-04-22T03:43:24;100939.23;;;6.67;79.35
56681;BME280;42558;52.388;13.390;2023-04-22T03:45:52;100944.86;;;6.63;80.23
56681;BME280;42558;52.388;13.390;2023-04-22T03:48:21;100942.94;;;6.58;80.64
56681;BME280;42558;52.388;13.390;2023-04-22T03:50:49;100947.95;;;6.51;81.04
56681;BME280;42558;52.388;13.390;2023-04-22T03:53:17;100950.01;;;6.50;81.65
56681;BME280;42558;52.388;13.390;2023-04-22T03:55:46;100950.52;;;6.49;81.53
56681;BME280;42558;52.388;13.390;2023-04-22T03:58:14;100948.23;;;6.44;81.28
56681;BME280;42558;52.388;13.390;2023-04-22T04:00:43;100947.77;;;6.45;82.07
56681;BME280;42558;52.388;13.390;2023-04-22T04:03:11;100949.19;;;6.47;81.96
56681;BME280;42558;52.388;13.390;2023-04-22T04:05:40;100945.16;;;6.41;81.93
56681;BME280;42558;52.388;13.390;2023-04-22T04:08:08;100944.36;;;6.38;82.09
56681;BME280;42558;52.388;13.390;2023-04-22T04:10:37;100944.25;;;6.45;82.41
56681;BME280;42558;52.388;13.390;2023-04-22T04:13:05;100944.45;;;6.51;82.13
56681;BME280;42558;52.388;13.390;2023-04-22T04:15:33;100943.41;;;6.46;82.25
56681;BME280;42558;52.388;13.390;2023-04-22T04:18:05;100944.06;;;6.44;82.49
56681;BME280;42558;52.388;13.390;2023-04-22T04:20:33;100945.09;;;6.49;82.74
56681;BME280;42558;52.388;13.390;2023-04-22T04:23:02;100945.17;;;6.51;82.51
56681;BME280;42558;52.388;13.390;2023-04-22T04:25:30;100946.68;;;6.60;81.91
56681;BME280;42558;52.388;13.390;2023-04-22T04:28:05;100943.23;;;6.56;82.42
56681;BME280;42558;52.388;13.390;2023-04-22T04:30:37;100943.16;;;6.81;81.45
56681;BME280;42558;52.388;13.390;2023-04-22T04:33:09;100939.92;;;6.89;80.70
56681;BME280;42558;52.388;13.390;2023-04-22T04:35:39;100943.27;;;6.79;80.75
56681;BME280;42558;52.388;13.390;2023-04-22T04:38:10;100942.52;;;6.83;80.88
56681;BME280;42558;52.388;13.390;2023-04-22T04:40:40;100935.90;;;6.90;80.72
56681;BME280;42558;52.388;13.390;2023-04-22T04:43:11;100938.14;;;7.00;80.18
56681;BME280;42558;52.388;13.390;2023-04-22T04:45:41;100941.42;;;7.10;79.58
56681;BME280;42558;52.388;13.390;2023-04-22T04:48:18;100939.18;;;7.22;78.73
56681;BME280;42558;52.388;13.390;2023-04-22T04:50:48;100942.45;;;7.20;78.81
56681;BME280;42558;52.388;13.390;2023-04-22T04:53:21;100944.62;;;7.28;78.16
56681;BME280;42558;52.388;13.390;2023-04-22T04:55:48;100941.46;;;7.34;78.16
56681;BME280;42558;52.388;13.390;2023-04-22T04:58:16;100939.27;;;7.37;77.87
56681;BME280;42558;52.388;13.390;2023-04-22T05:00:46;100939.75;;;7.42;77.39
56681;BME280;42558;52.388;13.390;2023-04-22T05:03:15;100937.77;;;7.46;77.05
56681;BME280;42558;52.388;13.390;2023-04-22T05:05:46;100936.85;;;7.50;77.47
56681;BME280;42558;52.388;13.390;2023-04-22T05:08:16;100939.62;;;7.55;76.78
56681;BME280;42558;52.388;13.390;2023-04-22T05:10:46;100937.38;;;7.62;76.53
56681;BME280;42558;52.388;13.390;2023-04-22T05:13:16;100936.33;;;7.69;76.18
56681;BME280;42558;52.388;13.390;2023-04-22T05:15:46;100932.17;;;7.76;76.16
56681;BME280;42558;52.388;13.390;2023-04-22T05:18:16;100932.25;;;7.79;75.85
56681;BME280;42558;52.388;13.390;2023-04-22T05:20:46;100933.70;;;7.87;75.48
56681;BME280;42558;52.388;13.390;2023-04-22T05:23:15;100928.38;;;7.91;75.67
56681;BME280;42558;52.388;13.390;2023-04-22T05:25:45;100934.78;;;8.02;75.15
56681;BME280;42558;52.388;13.390;2023-04-22T05:28:15;100934.32;;;8.04;75.05
56681;BME280;42558;52.388;13.390;2023-04-22T05:30:45;100934.66;;;8.17;74.18
56681;BME280;42558;52.388;13.390;2023-04-22T05:33:15;100931.20;;;8.25;73.94
56681;BME280;42558;52.388;13.390;2023-04-22T05:35:45;100934.02;;;8.32;73.87
56681;BME280;42558;52.388;13.390;2023-04-22T05:38:15;100934.66;;;8.43;73.74
56681;BME280;42558;52.388;13.390;2023-04-22T05:40:45;100935.05;;;8.52;73.31
56681;BME280;42558;52.388;13.390;2023-04-22T05:43:15;100937.14;;;8.66;73.09
56681;BME280;42558;52.388;13.390;2023-04-22T05:45:44;100940.05;;;8.77;72.94
56681;BME280;42558;52.388;13.390;2023-04-22T05:48:14;100936.23;;;8.86;72.50
56681;BME280;42558;52.388;13.390;2023-04-22T05:50:44;100939.61;;;8.96;72.59
56681;BME280;42558;52.388;13.390;2023-04-22T05:53:14;100940.16;;;9.05;71.85
56681;BME280;42558;52.388;13.390;2023-04-22T05:55:44;100935.75;;;9.20;71.22
56681;BME280;42558;52.388;13.390;2023-04-22T05:58:14;100938.19;;;9.18;70.80
56681;BME280;42558;52.388;13.390;2023-04-22T06:00:42;100939.88;;;9.32;69.97
56681;BME280;42558;52.388;13.390;2023-04-22T06:03:11;100941.41;;;9.54;69.99
56681;BME280;42558;52.388;13.390;2023-04-22T06:05:39;100938.50;;;9.58;69.79
56681;BME280;42558;52.388;13.390;2023-04-22T06:08:07;100939.44;;;9.61;69.76
56681;BME280;42558;52.388;13.390;2023-04-22T06:10:36;100942.61;;;9.79;69.41
56681;BME280;42558;52.388;13.390;2023-04-22T06:13:04;100940.30;;;10.06;68.76
56681;BME280;42558;52.388;13.390;2023-04-22T06:15:33;100934.24;;;10.20;68.19
56681;BME280;42558;52.388;13.390;2023-04-22T06:18:01;100938.02;;;10.23;67.43
56681;BME280;42558;52.388;13.390;2023-04-22T06:20:29;100935.35;;;10.41;66.91
56681;BME280;42558;52.388;13.390;2023-04-22T06:22:58;100933.89;;;10.58;66.20
56681;BME280;42558;52.388;13.390;2023-04-22T06:25:27;100933.95;;;10.74;65.77
56681;BME280;42558;52.388;13.390;2023-04-22T06:27:55;100932.70;;;10.96;65.55
56681;BME280;42558;52.388;13.390;2023-04-22T06:30:24;100932.04;;;11.10;64.33
56681;BME280;42558;52.388;13.390;2023-04-22T06:32:52;100926.13;;;11.16;64.37
56681;BME280;42558;52.388;13.390;2023-04-22T06:35:23;100929.94;;;11.52;63.53
56681;BME280;42558;52.388;13.390;2023-04-22T06:37:51;100929.81;;;11.55;63.54
56681;BME280;42558;52.388;13.390;2023-04-22T06:40:20;100928.83;;;11.61;63.13
56681;BME280;42558;52.388;13.390;2023-04-22T06:42:48;100924.41;;;11.89;62.74
56681;BME280;42558;52.388;13.390;2023-04-22T06:45:17;100919.59;;;12.00;61.99
56681;BME280;42558;52.388;13.390;2023-04-22T06:47:45;100914.94;;;12.28;62.07
56681;BME280;42558;52.388;13.390;2023-04-22T06:50:13;100915.36;;;12.59;61.04
56681;BME280;42558;52.388;13.390;2023-04-22T06:52:42;100911.33;;;12.61;60.39
56681;BME280;42558;52.388;13.390;2023-04-22T06:55:10;100909.64;;;12.97;60.15
56681;BME280;42558;52.388;13.390;2023-04-22T06:57:39;100909.79;;;13.19;59.88
56681;BME280;42558;52.388;13.390;2023-04-22T07:00:08;100914.10;;;13.03;59.67
56681;BME280;42558;52.388;13.390;2023-04-22T07:02:36;100911.55;;;13.19;58.94
56681;BME280;42558;52.388;13.390;2023-04-22T07:05:04;100910.18;;;13.28;59.28
56681;BME280;42558;52.388;13.390;2023-04-22T07:07:33;100910.70;;;13.61;58.16
56681;BME280;42558;52.388;13.390;2023-04-22T07:10:01;100914.95;;;13.65;57.51
56681;BME280;42558;52.388;13.390;2023-04-22T07:12:29;100918.27;;;14.20;57.18
56681;BME280;42558;52.388;13.390;2023-04-22T07:14:58;100909.83;;;14.65;54.92
56681;BME280;42558;52.388;13.390;2023-04-22T07:17:26;100914.58;;;14.37;54.84
56681;BME280;42558;52.388;13.390;2023-04-22T07:19:54;100904.65;;;14.89;54.27
56681;BME280;42558;52.388;13.390;2023-04-22T07:22:23;100903.60;;;14.80;53.84
56681;BME280;42558;52.388;13.390;2023-04-22T07:24:51;100903.98;;;15.38;53.66
56681;BME280;42558;52.388;13.390;2023-04-22T07:27:20;100903.66;;;16.04;52.25
56681;BME280;42558;52.388;13.390;2023-04-22T07:29:48;100902.69;;;15.91;50.33
56681;BME280;42558;52.388;13.390;2023-04-22T07:32:17;100903.21;;;15.57;52.52
56681;BME280;42558;52.388;13.390;2023-04-22T07:34:45;100900.60;;;15.86;51.51
56681;BME280;42558;52.388;13.390;2023-04-22T07:37:13;100903.17;;;15.63;51.63
56681;BME280;42558;52.388;13.390;2023-04-22T07:39:42;100904.53;;;15.80;52.03
56681;BME280;42558;52.388;13.390;2023-04-22T07:42:12;100901.58;;;15.98;51.15
56681;BME280;42558;52.388;13.390;2023-04-22T07:44:46;100902.67;;;15.58;52.02
56681;BME280;42558;52.388;13.390;2023-04-22T07:47:16;100896.43;;;15.69;51.61
56681;BME280;42558;52.388;13.390;2023-04-22T07:49:46;100894.19;;;15.90;51.85
56681;BME280;42558;52.388;13.390;2023-04-22T07:52:16;100889.85;;;16.00;49.97
56681;BME280;42558;52.388;13.390;2023-04-22T07:54:46;100890.65;;;15.89;50.80
56681;BME280;42558;52.388;13.390;2023-04-22T07:57:15;100885.66;;;16.40;50.52
56681;BME280;42558;52.388;13.390;2023-04-22T07:59:45;100878.24;;;16.57;49.30
56681;BME280;42558;52.388;13.390;2023-04-22T08:02:15;100874.98;;;16.23;48.75
56681;BME280;42558;52.388;13.390;2023-04-22T08:04:45;100870.70;;;16.66;49.06
56681;BME280;42558;52.388;13.390;2023-04-22T08:07:15;100866.79;;;17.03;48.93
56681;BME280;42558;52.388;13.390;2023-04-22T08:10:01;100863.61;;;17.32;48.27
56681;BME280;42558;52.388;13.390;2023-04-22T08:12:31;100862.55;;;17.31;47.04
56681;BME280;42558;52.388;13.390;2023-04-22T08:15:01;100858.98;;;17.31;47.80
56681;BME280;42558;52.388;13.390;2023-04-22T08:17:31;100863.92;;;17.77;46.93
56681;BME280;42558;52.388;13.390;2023-04-22T08:20:01;100858.20;;;17.64;47.00
56681;BME280;42558;52.388;13.390;2023-04-22T08:22:31;100855.28;;;17.57;46.52
56681;BME280;42558;52.388;13.390;2023-04-22T08:25:01;100853.80;;;17.36;47.91
56681;BME280;42558;52.388;13.390;2023-04-22T08:27:31;100850.33;;;17.93;47.07
56681;BME280;42558;52.388;13.390;2023-04-22T08:30:01;100850.07;;;18.00;46.45
56681;BME280;42558;52.388;13.390;2023-04-22T08:32:31;100852.73;;;17.75;46.65
56681;BME280;42558;52.388;13.390;2023-04-22T08:35:00;100857.32;;;17.36;46.48
56681;BME280;42558;52.388;13.390;2023-04-22T08:37:34;100847.71;;;17.51;47.73
56681;BME280;42558;52.388;13.390;2023-04-22T08:40:05;100848.34;;;17.44;47.29
56681;BME280;42558;52.388;13.390;2023-04-22T08:42:33;100850.98;;;17.98;46.61
56681;BME280;42558;52.388;13.390;2023-04-22T08:45:03;100850.10;;;18.09;47.05
56681;BME280;42558;52.388;13.390;2023-04-22T08:47:33;100849.52;;;18.01;46.59
56681;BME280;42558;52.388;13.390;2023-04-22T08:50:05;100847.45;;;17.96;46.77
56681;BME280;42558;52.388;13.390;2023-04-22T08:52:37;100845.84;;;18.19;46.96
56681;BME280;42558;52.388;13.390;2023-04-22T08:55:07;100840.64;;;18.75;45.64
56681;BME280;42558;52.388;13.390;2023-04-22T08:57:40;100843.64;;;18.23;45.79
56681;BME280;42558;52.388;13.390;2023-04-22T09:00:11;100839.83;;;18.59;45.23
56681;BME280;42558;52.388;13.390;2023-04-22T09:02:43;100842.39;;;18.23;45.19
56681;BME280;42558;52.388;13.390;2023-04-22T09:05:15;100833.20;;;19.07;44.85
56681;BME280;42558;52.388;13.390;2023-04-22T09:07:44;100833.03;;;19.16;44.58
56681;BME280;42558;52.388;13.390;2023-04-22T09:10:14;100833.25;;;19.05;43.30
56681;BME280;42558;52.388;13.390;2023-04-22T09:12:46;100836.95;;;18.40;44.71
56681;BME280;42558;52.388;13.390;2023-04-22T09:15:17;100830.42;;;18.77;43.84
56681;BME280;42558;52.388;13.390;2023-04-22T09:17:50;100829.81;;;19.34;43.82
56681;BME280;42558;52.388;13.390;2023-04-22T09:20:26;100820.60;;;19.80;42.62
56681;BME280;42558;52.388;13.390;2023-04-22T09:23:02;100817.88;;;19.74;42.36
56681;BME280;42558;52.388;13.390;2023-04-22T09:25:33;100815.46;;;20.15;41.19
56681;BME280;42558;52.388;13.390;2023-04-22T09:28:11;100813.48;;;19.55;43.17
56681;BME280;42558;52.388;13.390;2023-04-22T09:30:39;100804.88;;;20.18;42.14
56681;BME280;42558;52.388;13.390;2023-04-22T09:33:09;100802.40;;;20.52;42.17
56681;BME280;42558;52.388;13.390;2023-04-22T09:35:41;100801.36;;;20.30;42.02
56681;BME280;42558;52.388;13.390;2023-04-22T09:38:11;100800.23;;;20.10;42.07
56681;BME280;42558;52.388;13.390;2023-04-22T09:40:42;100794.80;;;20.69;41.77
56681;BME280;42558;52.388;13.390;2023-04-22T09:43:18;100795.23;;;20.25;41.56
56681;BME280;42558;52.388;13.390;2023-04-22T09:45:46;100788.77;;;20.67;41.72
56681;BME280;42558;52.388;13.390;2023-04-22T09:48:17;100788.65;;;20.84;40.65
56681;BME280;42558;52.388;13.390;2023-04-22T09:50:49;100786.53;;;20.08;41.01
56681;BME280;42558;52.388;13.390;2023-04-22T09:53:20;100777.19;;;21.34;40.16
56681;BME280;42558;52.388;13.390;2023-04-22T09:55:52;100780.17;;;20.26;40.38
56681;BME280;42558;52.388;13.390;2023-04-22T09:58:21;100777.60;;;20.50;40.00
56681;BME280;42558;52.388;13.390;2023-04-22T10:00:57;100774.23;;;20.82;42.20
56681;BME280;42558;52.388;13.390;2023-04-22T10:03:27;100767.46;;;21.24;39.14
56681;BME280;42558;52.388;13.390;2023-04-22T10:05:58;100769.66;;;20.26;39.89
56681;BME280;42558;52.388;13.390;2023-04-22T10:08:28;100765.20;;;20.39;40.77
56681;BME280;42558;52.388;13.390;2023-04-22T10:10:58;100760.81;;;20.51;40.11
56681;BME280;42558;52.388;13.390;2023-04-22T10:13:28;100759.58;;;20.76;38.90
56681;BME280;42558;52.388;13.390;2023-04-22T10:15:59;100757.13;;;21.17;37.87
56681;BME280;42558;52.388;13.390;2023-04-22T10:18:30;100758.74;;;20.92;38.58
56681;BME280;42558;52.388;13.390;2023-04-22T10:21:01;100750.94;;;21.26;38.40
56681;BME280;42558;52.388;13.390;2023-04-22T10:23:31;100748.19;;;20.87;38.82
56681;BME280;42558;52.388;13.390;2023-04-22T10:26:04;100740.33;;;21.05;37.33
56681;BME280;42558;52.388;13.390;2023-04-22T10:28:33;100741.09;;;20.97;37.35
56681;BME280;42558;52.388;13.390;2023-04-22T10:31:20;100734.85;;;21.20;37.69
56681;BME280;42558;52.388;13.390;2023-04-22T10:34:12;100725.40;;;21.43;35.87
56681;BME280;42558;52.388;13.390;2023-04-22T10:37:12;100720.59;;;21.25;36.89
56681;BME280;42558;52.388;13.390;2023-04-22T10:40:08;100721.50;;;21.25;37.01
56681;BME280;42558;52.388;13.390;2023-04-22T10:42:40;100725.69;;;21.10;36.16
56681;BME280;42558;52.388;13.390;2023-04-22T10:45:12;100714.49;;;21.37;36.74
56681;BME280;42558;52.388;13.390;2023-04-22T10:47:43;100713.55;;;21.61;36.07
56681;BME280;42558;52.388;13.390;2023-04-22T10:50:30;100705.64;;;21.73;35.99
56681;BME280;42558;52.388;13.390;2023-04-22T10:53:36;100701.63;;;21.81;36.64
56681;BME280;42558;52.388;13.390;2023-04-22T10:56:16;100700.37;;;21.91;36.10
56681;BME280;42558;52.388;13.390;2023-04-22T10:58:49;100703.79;;;21.47;33.93
56681;BME280;42558;52.388;13.390;2023-04-22T11:01:20;100700.01;;;20.84;34.47
56681;BME280;42558;52.388;13.390;2023-04-22T11:03:50;100696.19;;;21.34;33.59
56681;BME280;42558;52.388;13.390;2023-04-22T11:06:21;100690.83;;;21.39;34.32
56681;BME280;42558;52.388;13.390;2023-04-22T11:09:08;100689.27;;;21.65;33.63
56681;BME280;42558;52.388;13.390;2023-04-22T11:11:38;100687.61;;;21.50;32.87
56681;BME280;42558;52.388;13.390;2023-04-22T11:14:09;100679.27;;;21.64;34.29
56681;BME280;42558;52.388;13.390;2023-04-22T11:16:46;100679.34;;;21.94;33.78
56681;BME280;42558;52.388;13.390;2023-04-22T11:19:16;100672.41;;;21.66;33.43
56681;BME280;42558;52.388;13.390;2023-04-22T11:21:46;100677.08;;;21.76;33.02
56681;BME280;42558;52.388;13.390;2023-04-22T11:24:19;100674.74;;;21.97;33.46
56681;BME280;42558;52.388;13.390;2023-04-22T11:26:49;100670.98;;;22.23;31.91
56681;BME280;42558;52.388;13.390;2023-04-22T11:29:19;100668.18;;;22.26;32.78
56681;BME280;42558;52.388;13.390;2023-04-22T11:31:49;100668.41;;;21.56;32.75
56681;BME280;42558;52.388;13.390;2023-04-22T11:34:19;100665.64;;;22.46;33.36
56681;BME280;42558;52.388;13.390;2023-04-22T11:36:49;100661.65;;;22.38;31.81
56681;BME280;42558;52.388;13.390;2023-04-22T11:39:19;100664.34;;;22.18;32.04
56681;BME280;42558;52.388;13.390;2023-04-22T11:41:49;100663.13;;;21.81;31.78
56681;BME280;42558;52.388;13.390;2023-04-22T11:44:22;100659.76;;;21.85;32.05
56681;BME280;42558;52.388;13.390;2023-04-22T11:46:56;100651.05;;;21.88;31.13
56681;BME280;42558;52.388;13.390;2023-04-22T11:49:23;100650.34;;;21.94;32.03
56681;BME280;42558;52.388;13.390;2023-04-22T11:51:56;100643.60;;;21.76;32.04
56681;BME280;42558;52.388;13.390;2023-04-22T11:54:41;100648.58;;;21.83;31.97
56681;BME280;42558;52.388;13.390;2023-04-22T11:57:11;100641.31;;;21.91;31.27
56681;BME280;42558;52.388;13.390;2023-04-22T11:59:56;100647.51;;;21.82;31.20
56681;BME280;42558;52.388;13.390;2023-04-22T12:02:27;100643.15;;;21.31;31.29
56681;BME280;42558;52.388;13.390;2023-04-22T12:04:58;100639.86;;;21.66;32.02
56681;BME280;42558;52.388;13.390;2023-04-22T12:07:30;100634.32;;;22.06;31.73
56681;BME280;42558;52.388;13.390;2023-04-22T12:10:01;100639.19;;;21.69;31.33
56681;BME280;42558;52.388;13.390;2023-04-22T12:12:38;100634.97;;;21.46;31.33
56681;BME280;42558;52.388;13.390;2023-04-22T12:15:10;100630.24;;;21.75;31.06
56681;BME280;42558;52.388;13.390;2023-04-22T12:17:43;100625.95;;;22.25;31.30
56681;BME280;42558;52.388;13.390;2023-04-22T12:20:12;100629.48;;;22.11;30.25
56681;BME280;42558;52.388;13.390;2023-04-22T12:22:40;100626.73;;;22.08;30.31
56681;BME280;42558;52.388;13.390;2023-04-22T12:25:08;100625.20;;;22.06;31.01
56681;BME280;42558;52.388;13.390;2023-04-22T12:27:36;100625.23;;;22.40;30.00
56681;BME280;42558;52.388;13.390;2023-04-22T12:30:06;100622.24;;;22.04;29.63
56681;BME280;42558;52.388;13.390;2023-04-22T12:32:37;100624.97;;;21.72;30.62
56681;BME280;42558;52.388;13.390;2023-04-22T12:35:07;100619.66;;;21.75;30.29
56681;BME280;42558;52.388;13.390;2023-04-22T12:37:37;100624.38;;;21.73;30.92
56681;BME280;42558;52.388;13.390;2023-04-22T12:40:08;100624.19;;;21.84;30.93
56681;BME280;42558;52.388;13.390;2023-04-22T12:42:38;100613.46;;;22.43;30.69
56681;BME280;42558;52.388;13.390;2023-04-22T12:45:09;100608.31;;;21.92;30.63
56681;BME280;42558;52.388;13.390;2023-04-22T12:47:39;100612.88;;;21.90;32.03
56681;BME280;42558;52.388;13.390;2023-04-22T12:50:09;100614.95;;;21.67;32.08
56681;BME280;42558;52.388;13.390;2023-04-22T12:52:39;100604.61;;;22.12;31.36
56681;BME280;42558;52.388;13.390;2023-04-22T12:55:09;100601.45;;;22.43;32.26
56681;BME280;42558;52.388;13.390;2023-04-22T12:57:39;100604.70;;;22.43;32.40
56681;BME280;42558;52.388;13.390;2023-04-22T13:00:09;100604.07;;;22.35;31.94
56681;BME280;42558;52.388;13.390;2023-04-22T13:02:45;100601.48;;;22.14;32.20